createdAt,value
2022-09-07T00:00:54.647Z,0.00
2022-09-07T00:01:54.700Z,0.00
2022-09-07T00:02:54.692Z,0.00
2022-09-07T00:03:54.748Z,0.00
2022-09-07T00:04:54.683Z,0.00
2022-09-07T00:05:54.652Z,0.00
2022-09-07T00:06:54.640Z,0.00
2022-09-07T00:07:54.659Z,0.00
2022-09-07T00:08:54.680Z,0.00
2022-09-07T00:09:54.681Z,0.00
2022-09-07T00:10:54.629Z,0.00
2022-09-07T00:11:54.607Z,0.00
2022-09-07T00:12:54.609Z,0.00
2022-09-07T00:13:54.650Z,0.00
2022-09-07T00:14:54.557Z,0.00
2022-09-07T00:15:54.617Z,0.00
2022-09-07T00:16:54.576Z,0.00
2022-09-07T00:17:54.542Z,0.00
2022-09-07T00:18:54.553Z,0.00
2022-09-07T00:19:54.554Z,0.00
2022-09-07T00:20:54.541Z,0.00
2022-09-07T00:21:54.525Z,0.00
2022-09-07T00:22:54.515Z,0.00
2022-09-07T00:23:54.505Z,0.00
2022-09-07T00:24:54.530Z,0.00
2022-09-07T00:25:54.698Z,0.00
2022-09-07T00:26:54.506Z,0.00
2022-09-07T00:27:54.487Z,0.00
2022-09-07T00:28:54.579Z,0.00
2022-09-07T00:29:54.521Z,0.00
2022-09-07T00:30:54.516Z,0.00
2022-09-07T00:31:54.554Z,0.00
2022-09-07T00:32:54.484Z,0.00
2022-09-07T00:33:54.489Z,0.00
2022-09-07T00:34:54.460Z,0.00
2022-09-07T00:35:54.431Z,0.00
2022-09-07T00:36:54.424Z,0.00
2022-09-07T00:37:54.496Z,0.00
2022-09-07T00:38:54.452Z,0.00
2022-09-07T00:39:54.667Z,0.00
2022-09-07T00:40:54.440Z,0.00
2022-09-07T00:41:54.443Z,0.00
2022-09-07T00:42:54.394Z,0.00
2022-09-07T00:43:54.447Z,0.00
2022-09-07T00:44:54.411Z,0.00
2022-09-07T00:45:54.375Z,0.00
2022-09-07T00:46:54.403Z,0.00
2022-09-07T00:47:54.350Z,0.00
2022-09-07T00:48:54.362Z,0.00
2022-09-07T00:49:54.373Z,0.00
2022-09-07T00:50:54.332Z,0.00
2022-09-07T00:51:54.376Z,0.00
2022-09-07T00:52:54.344Z,0.00
2022-09-07T00:53:54.375Z,0.00
2022-09-07T00:54:54.356Z,0.00
2022-09-07T00:55:54.319Z,0.00
2022-09-07T00:56:54.310Z,0.00
2022-09-07T00:57:54.536Z,0.00
2022-09-07T00:58:54.301Z,0.00
2022-09-07T00:59:54.301Z,0.00
2022-09-07T01:00:54.280Z,0.00
2022-09-07T01:01:54.439Z,0.00
2022-09-07T01:02:54.437Z,0.00
2022-09-07T01:03:54.312Z,0.00
2022-09-07T01:04:54.278Z,0.00
2022-09-07T01:05:54.255Z,0.00
2022-09-07T01:06:54.332Z,0.00
2022-09-07T01:07:54.245Z,0.00
2022-09-07T01:08:54.286Z,0.00
2022-09-07T01:09:54.241Z,0.00
2022-09-07T01:10:54.237Z,0.00
2022-09-07T01:11:54.255Z,0.00
2022-09-07T01:12:54.206Z,0.00
2022-09-07T01:13:54.244Z,0.00
2022-09-07T01:14:54.195Z,0.00
2022-09-07T01:15:54.285Z,0.00
2022-09-07T01:16:54.627Z,0.00
2022-09-07T01:17:54.173Z,0.00
2022-09-07T01:18:54.185Z,0.00
2022-09-07T01:19:54.182Z,0.00
2022-09-07T01:20:54.172Z,0.00
2022-09-07T01:21:54.200Z,0.00
2022-09-07T01:22:54.198Z,0.00
2022-09-07T01:23:54.215Z,0.00
2022-09-07T01:24:54.202Z,0.00
2022-09-07T01:25:54.163Z,0.00
2022-09-07T01:26:54.167Z,0.00
2022-09-07T01:27:54.130Z,0.00
2022-09-07T01:28:54.165Z,0.00
2022-09-07T01:29:54.139Z,0.00
2022-09-07T01:30:54.199Z,0.00
2022-09-07T01:31:54.132Z,0.00
2022-09-07T01:32:54.120Z,0.00
2022-09-07T01:33:54.090Z,0.00
2022-09-07T01:34:54.099Z,0.00
2022-09-07T01:35:54.103Z,0.00
2022-09-07T01:36:54.071Z,0.00
2022-09-07T01:37:57.064Z,0.00
2022-09-07T01:38:54.075Z,0.00
2022-09-07T01:39:54.128Z,0.00
2022-09-07T01:40:54.064Z,0.00
2022-09-07T01:41:54.051Z,0.00
2022-09-07T01:42:54.288Z,0.00
2022-09-07T01:43:54.049Z,0.00
2022-09-07T01:44:54.046Z,0.00
2022-09-07T01:45:54.186Z,0.00
2022-09-07T01:46:54.048Z,0.00
2022-09-07T01:47:54.050Z,0.00
2022-09-07T01:48:54.024Z,0.00
2022-09-07T01:49:54.018Z,0.00
2022-09-07T01:50:54.012Z,0.00
2022-09-07T01:51:53.990Z,0.00
2022-09-07T01:52:54.204Z,0.00
2022-09-07T01:53:54.020Z,0.00
2022-09-07T01:54:53.980Z,0.00
2022-09-07T01:55:54.011Z,0.00
2022-09-07T01:56:53.968Z,0.00
2022-09-07T01:57:53.970Z,0.00
2022-09-07T01:58:53.986Z,0.00
2022-09-07T01:59:54.004Z,0.00
2022-09-07T02:00:53.946Z,0.00
2022-09-07T02:01:54.033Z,0.00
2022-09-07T02:02:54.001Z,0.00
2022-09-07T02:03:53.930Z,0.00
2022-09-07T02:04:53.971Z,0.00
2022-09-07T02:05:53.939Z,0.00
2022-09-07T02:06:53.919Z,0.00
2022-09-07T02:07:53.929Z,0.00
2022-09-07T02:08:53.915Z,0.00
2022-09-07T02:09:53.903Z,0.00
2022-09-07T02:10:53.895Z,0.00
2022-09-07T02:11:53.901Z,0.00
2022-09-07T02:12:53.876Z,0.00
2022-09-07T02:13:53.897Z,0.00
2022-09-07T02:14:53.868Z,0.00
2022-09-07T02:15:54.034Z,0.00
2022-09-07T02:16:54.028Z,0.00
2022-09-07T02:17:53.835Z,0.00
2022-09-07T02:18:53.817Z,0.00
2022-09-07T02:19:53.835Z,0.00
2022-09-07T02:20:53.819Z,0.00
2022-09-07T02:21:53.865Z,0.00
2022-09-07T02:22:53.800Z,0.00
2022-09-07T02:23:53.815Z,0.00
2022-09-07T02:24:53.811Z,0.00
2022-09-07T02:25:53.830Z,0.00
2022-09-07T02:26:53.782Z,0.00
2022-09-07T02:27:53.802Z,0.00
2022-09-07T02:28:53.772Z,0.00
2022-09-07T02:29:53.762Z,0.00
2022-09-07T02:30:53.791Z,0.00
2022-09-07T02:31:53.763Z,0.00
2022-09-07T02:32:53.765Z,0.00
2022-09-07T02:33:53.777Z,0.00
2022-09-07T02:34:53.775Z,0.00
2022-09-07T02:35:53.989Z,0.00
2022-09-07T02:36:53.759Z,0.00
2022-09-07T02:37:53.740Z,0.00
2022-09-07T02:38:53.763Z,0.00
2022-09-07T02:39:53.866Z,0.00
2022-09-07T02:40:53.735Z,0.00
2022-09-07T02:41:53.718Z,0.00
2022-09-07T02:42:53.717Z,0.00
2022-09-07T02:43:53.707Z,0.00
2022-09-07T02:44:53.680Z,0.00
2022-09-07T02:45:53.833Z,0.00
2022-09-07T02:46:53.690Z,0.00
2022-09-07T02:47:53.742Z,0.00
2022-09-07T02:48:53.685Z,0.00
2022-09-07T02:49:53.675Z,0.00
2022-09-07T02:50:53.660Z,0.00
2022-09-07T02:51:53.858Z,0.00
2022-09-07T02:52:53.641Z,0.00
2022-09-07T02:53:53.652Z,0.00
2022-09-07T02:54:53.688Z,0.00
2022-09-07T02:55:53.635Z,0.00
2022-09-07T02:56:53.624Z,0.00
2022-09-07T02:57:53.599Z,0.00
2022-09-07T02:58:53.638Z,0.00
2022-09-07T02:59:53.631Z,0.00
2022-09-07T03:00:53.636Z,0.00
2022-09-07T03:01:53.735Z,0.00
2022-09-07T03:02:53.639Z,0.00
2022-09-07T03:03:53.593Z,0.00
2022-09-07T03:04:53.567Z,0.00
2022-09-07T03:05:53.575Z,0.00
2022-09-07T03:06:53.590Z,0.00
2022-09-07T03:07:53.552Z,0.00
2022-09-07T03:08:53.535Z,0.00
2022-09-07T03:09:53.551Z,0.00
2022-09-07T03:10:53.755Z,0.00
2022-09-07T03:11:53.534Z,0.00
2022-09-07T03:12:53.531Z,0.00
2022-09-07T03:13:53.525Z,0.00
2022-09-07T03:14:53.506Z,0.00
2022-09-07T03:15:55.975Z,0.00
2022-09-07T03:16:53.597Z,0.00
2022-09-07T03:17:53.508Z,0.00
2022-09-07T03:18:53.487Z,0.00
2022-09-07T03:19:53.483Z,0.00
2022-09-07T03:20:53.485Z,0.00
2022-09-07T03:21:53.461Z,0.00
2022-09-07T03:22:53.471Z,0.00
2022-09-07T03:23:53.479Z,0.00
2022-09-07T03:24:53.477Z,0.00
2022-09-07T03:25:53.445Z,0.00
2022-09-07T03:26:53.438Z,0.00
2022-09-07T03:27:53.428Z,0.00
2022-09-07T03:28:53.421Z,0.00
2022-09-07T03:29:53.446Z,0.00
2022-09-07T03:30:53.475Z,0.00
2022-09-07T03:31:53.413Z,0.00
2022-09-07T03:32:53.441Z,0.00
2022-09-07T03:33:53.399Z,0.00
2022-09-07T03:34:53.426Z,0.00
2022-09-07T03:35:53.396Z,0.00
2022-09-07T03:36:53.403Z,0.00
2022-09-07T03:37:53.373Z,0.00
2022-09-07T03:38:53.398Z,0.00
2022-09-07T03:39:53.391Z,0.00
2022-09-07T03:40:53.383Z,0.00
2022-09-07T03:41:53.401Z,0.00
2022-09-07T03:42:53.342Z,0.00
2022-09-07T03:43:53.365Z,0.00
2022-09-07T03:44:53.338Z,0.00
2022-09-07T03:45:53.402Z,0.00
2022-09-07T03:46:53.357Z,0.00
2022-09-07T03:47:53.343Z,0.00
2022-09-07T03:48:53.326Z,0.00
2022-09-07T03:49:53.300Z,0.00
2022-09-07T03:50:53.333Z,0.00
2022-09-07T03:51:53.298Z,0.00
2022-09-07T03:52:53.301Z,0.00
2022-09-07T03:53:53.299Z,0.00
2022-09-07T03:54:53.309Z,0.00
2022-09-07T03:55:53.286Z,0.00
2022-09-07T03:56:53.279Z,0.00
2022-09-07T03:57:53.251Z,0.00
2022-09-07T03:58:53.234Z,0.00
2022-09-07T03:59:53.274Z,0.00
2022-09-07T04:00:53.264Z,0.00
2022-09-07T04:01:53.301Z,0.00
2022-09-07T04:02:53.275Z,0.00
2022-09-07T04:03:53.212Z,0.00
2022-09-07T04:04:53.214Z,0.00
2022-09-07T04:05:53.361Z,0.00
2022-09-07T04:06:53.201Z,0.00
2022-09-07T04:07:53.306Z,4.00
2022-09-07T04:08:53.801Z,0.00
2022-09-07T04:09:53.370Z,0.00
2022-09-07T04:10:53.317Z,4.00
2022-09-07T04:11:53.178Z,0.00
2022-09-07T04:12:53.185Z,0.00
2022-09-07T04:13:53.155Z,4.00
2022-09-07T04:14:53.162Z,4.00
2022-09-07T04:15:54.074Z,0.00
2022-09-07T04:16:53.199Z,4.00
2022-09-07T04:17:53.129Z,4.00
2022-09-07T04:18:53.174Z,4.00
2022-09-07T04:19:53.490Z,4.00
2022-09-07T04:20:53.283Z,8.00
2022-09-07T04:21:53.406Z,8.00
2022-09-07T04:22:54.363Z,8.00
2022-09-07T04:23:53.080Z,12.00
2022-09-07T04:24:53.239Z,12.00
2022-09-07T04:25:53.063Z,16.00
2022-09-07T04:26:53.142Z,20.00
2022-09-07T04:27:53.056Z,24.00
2022-09-07T04:28:53.074Z,28.00
2022-09-07T04:29:53.044Z,36.00
2022-09-07T04:30:53.131Z,40.00
2022-09-07T04:31:53.088Z,48.00
2022-09-07T04:32:53.073Z,52.00
2022-09-07T04:33:53.136Z,60.00
2022-09-07T04:34:53.056Z,68.00
2022-09-07T04:35:53.072Z,76.00
2022-09-07T04:36:53.020Z,84.00
2022-09-07T04:37:53.125Z,92.00
2022-09-07T04:38:53.006Z,96.00
2022-09-07T04:39:53.077Z,104.00
2022-09-07T04:40:53.012Z,112.00
2022-09-07T04:41:52.983Z,120.00
2022-09-07T04:42:52.999Z,132.00
2022-09-07T04:43:53.005Z,136.00
2022-09-07T04:44:52.998Z,140.00
2022-09-07T04:45:53.275Z,144.00
2022-09-07T04:46:53.002Z,152.00
2022-09-07T04:47:52.988Z,160.00
2022-09-07T04:48:52.954Z,172.00
2022-09-07T04:49:52.953Z,180.00
2022-09-07T04:50:53.155Z,196.00
2022-09-07T04:51:52.964Z,208.00
2022-09-07T04:52:52.962Z,224.00
2022-09-07T04:53:52.937Z,248.00
2022-09-07T04:54:52.941Z,268.00
2022-09-07T04:55:52.922Z,292.00
2022-09-07T04:56:52.958Z,316.00
2022-09-07T04:57:52.937Z,340.00
2022-09-07T04:58:52.915Z,360.00
2022-09-07T04:59:52.929Z,376.00
2022-09-07T05:00:52.945Z,404.00
2022-09-07T05:01:52.946Z,428.00
2022-09-07T05:02:52.876Z,452.00
2022-09-07T05:03:52.945Z,472.00
2022-09-07T05:04:52.959Z,500.00
2022-09-07T05:05:52.846Z,524.00
2022-09-07T05:06:52.879Z,560.00
2022-09-07T05:07:52.875Z,592.00
2022-09-07T05:08:52.839Z,628.00
2022-09-07T05:09:52.837Z,660.00
2022-09-07T05:10:52.858Z,696.00
2022-09-07T05:11:52.809Z,728.00
2022-09-07T05:12:52.936Z,764.00
2022-09-07T05:13:52.803Z,800.00
2022-09-07T05:14:52.783Z,840.00
2022-09-07T05:15:52.797Z,888.00
2022-09-07T05:16:53.508Z,948.00
2022-09-07T05:17:52.761Z,1032.00
2022-09-07T05:18:52.744Z,1104.00
2022-09-07T05:19:52.769Z,1172.00
2022-09-07T05:20:52.749Z,1248.00
2022-09-07T05:21:53.079Z,1340.00
2022-09-07T05:22:52.743Z,1452.00
2022-09-07T05:23:52.763Z,1584.00
2022-09-07T05:24:52.750Z,1800.00
2022-09-07T05:25:52.791Z,2040.00
2022-09-07T05:26:52.960Z,2260.00
2022-09-07T05:27:53.070Z,2408.00
2022-09-07T05:28:53.544Z,2344.00
2022-09-07T05:31:52.698Z,2312.00
2022-09-07T05:32:52.707Z,1788.00
2022-09-07T05:34:53.103Z,1560.00
2022-09-07T05:35:52.677Z,1548.00
2022-09-07T05:36:52.693Z,1552.00
2022-09-07T05:37:52.709Z,1568.00
2022-09-07T05:38:52.666Z,1580.00
2022-09-07T05:39:52.813Z,1596.00
2022-09-07T05:40:52.626Z,1612.00
2022-09-07T05:41:52.663Z,1632.00
2022-09-07T05:42:52.652Z,1652.00
2022-09-07T05:44:52.622Z,1704.00
2022-09-07T05:45:52.655Z,1724.00
2022-09-07T05:46:52.626Z,1744.00
2022-09-07T05:47:52.610Z,1760.00
2022-09-07T05:48:52.611Z,1776.00
2022-09-07T05:49:55.258Z,1812.00
2022-09-07T05:50:52.636Z,2048.00
2022-09-07T05:51:52.599Z,1932.00
2022-09-07T05:52:52.622Z,1860.00
2022-09-07T05:53:52.567Z,1876.00
2022-09-07T05:54:54.319Z,1908.00
2022-09-07T05:55:52.550Z,1956.00
2022-09-07T05:56:52.570Z,2024.00
2022-09-07T05:57:52.548Z,2120.00
2022-09-07T05:58:52.545Z,2264.00
2022-09-07T05:59:52.581Z,2452.00
2022-09-07T06:00:52.528Z,2696.00
2022-09-07T06:01:52.688Z,2992.00
2022-09-07T06:02:52.632Z,3784.00
2022-09-07T06:03:52.618Z,4244.00
2022-09-07T06:04:52.654Z,4640.00
2022-09-07T06:05:52.519Z,5020.00
2022-09-07T06:07:20.227Z,5232.00
2022-09-07T06:07:52.487Z,5556.00
2022-09-07T06:08:52.505Z,5780.00
2022-09-07T06:10:52.463Z,5980.00
2022-09-07T06:11:52.473Z,6240.00
2022-09-07T06:12:52.469Z,6412.00
2022-09-07T06:13:52.452Z,6392.00
2022-09-07T06:14:52.477Z,6236.00
2022-09-07T06:15:52.448Z,6104.00
2022-09-07T06:16:52.524Z,6348.00
2022-09-07T06:17:52.425Z,6268.00
2022-09-07T06:18:52.431Z,6744.00
2022-09-07T06:19:52.444Z,6568.00
2022-09-07T06:20:52.452Z,6984.00
2022-09-07T06:21:52.425Z,6992.00
2022-09-07T06:22:52.420Z,6748.00
2022-09-07T06:23:52.464Z,6552.00
2022-09-07T06:24:52.398Z,5908.00
2022-09-07T06:25:52.400Z,6024.00
2022-09-07T06:26:52.397Z,6232.00
2022-09-07T06:27:52.394Z,5860.00
2022-09-07T06:28:57.161Z,5640.00
2022-09-07T06:29:52.379Z,5148.00
2022-09-07T06:30:52.403Z,4944.00
2022-09-07T06:32:52.385Z,4724.00
2022-09-07T06:33:52.421Z,4740.00
2022-09-07T06:34:52.352Z,4788.00
2022-09-07T06:35:52.395Z,4880.00
2022-09-07T06:36:52.424Z,5024.00
2022-09-07T06:37:52.370Z,5108.00
2022-09-07T06:38:52.474Z,5012.00
2022-09-07T06:39:52.441Z,4812.00
2022-09-07T06:41:59.582Z,4588.00
2022-09-07T06:42:52.476Z,4644.00
2022-09-07T06:43:52.312Z,4776.00
2022-09-07T06:44:52.374Z,5040.00
2022-09-07T06:45:52.510Z,5516.00
2022-09-07T06:47:07.750Z,5880.00
2022-09-07T06:47:52.306Z,6100.00
2022-09-07T06:48:52.309Z,6024.00
2022-09-07T06:49:52.306Z,6668.00
2022-09-07T06:50:52.321Z,7308.00
2022-09-07T06:51:52.294Z,8304.00
2022-09-07T06:53:52.821Z,9560.00
2022-09-07T06:54:59.883Z,9964.00
2022-09-07T06:55:52.279Z,10164.00
2022-09-07T06:56:52.276Z,10056.00
2022-09-07T06:57:52.263Z,7972.00
2022-09-07T06:58:52.252Z,6980.00
2022-09-07T06:59:52.249Z,6812.00
2022-09-07T07:00:52.292Z,6792.00
2022-09-07T07:01:52.251Z,7696.00
2022-09-07T07:02:52.334Z,7460.00
2022-09-07T07:03:52.271Z,7556.00
2022-09-07T07:04:52.240Z,7752.00
2022-09-07T07:05:52.477Z,7656.00
2022-09-07T07:06:52.266Z,8216.00
2022-09-07T07:07:52.273Z,8576.00
2022-09-07T07:08:52.284Z,9092.00
2022-09-07T07:09:52.534Z,9288.00
2022-09-07T07:10:52.434Z,9532.00
2022-09-07T07:11:52.676Z,9524.00
2022-09-07T07:12:52.514Z,9504.00
2022-09-07T07:13:52.548Z,9584.00
2022-09-07T07:14:52.541Z,7504.00
2022-09-07T07:15:52.367Z,6932.00
2022-09-07T07:16:52.640Z,6968.00
2022-09-07T07:17:58.377Z,8580.00
2022-09-07T07:18:52.463Z,9708.00
2022-09-07T07:19:52.613Z,9288.00
2022-09-07T07:20:52.456Z,7816.00
2022-09-07T07:22:29.164Z,6712.00
2022-09-07T07:22:52.486Z,5904.00
2022-09-07T07:23:52.661Z,5688.00
2022-09-07T07:24:52.490Z,5860.00
2022-09-07T07:25:52.451Z,6172.00
2022-09-07T07:26:52.464Z,7328.00
2022-09-07T07:27:52.735Z,7820.00
2022-09-07T07:29:52.461Z,8008.00
2022-09-07T07:30:52.428Z,10976.00
2022-09-07T07:31:52.524Z,14848.00
2022-09-07T07:32:52.331Z,23488.00
2022-09-07T07:33:52.376Z,12388.00
2022-09-07T07:34:52.348Z,8180.00
2022-09-07T07:35:52.440Z,7012.00
2022-09-07T07:36:52.559Z,6788.00
2022-09-07T07:37:52.523Z,6704.00
2022-09-07T07:39:00.335Z,6896.00
2022-09-07T07:42:52.313Z,23680.00
2022-09-07T07:43:52.113Z,17984.00
2022-09-07T07:46:52.455Z,27520.00
2022-09-07T07:47:52.488Z,10768.00
2022-09-07T07:48:52.529Z,50720.00
2022-09-07T07:50:30.627Z,54656.00
2022-09-07T07:50:52.334Z,51424.00
2022-09-07T07:53:41.244Z,16192.00
2022-09-07T07:53:52.354Z,17248.00
2022-09-07T07:54:52.395Z,12932.00
2022-09-07T07:55:52.399Z,16224.00
2022-09-07T07:56:52.139Z,48032.00
2022-09-07T07:57:52.190Z,72000.00
2022-09-07T07:58:52.280Z,75360.00
2022-09-07T07:59:52.404Z,79840.00
2022-09-07T08:00:55.095Z,77216.00
2022-09-07T08:01:52.484Z,70656.00
2022-09-07T08:02:52.680Z,70432.00
2022-09-07T08:03:52.377Z,74368.00
2022-09-07T08:04:52.333Z,79552.00
2022-09-07T08:05:52.362Z,77824.00
2022-09-07T08:06:52.149Z,74688.00
2022-09-07T08:07:52.231Z,72608.00
2022-09-07T08:08:52.298Z,69696.00
2022-09-07T08:09:52.371Z,64640.00
2022-09-07T08:10:52.880Z,65728.00
2022-09-07T08:11:54.950Z,60512.00
2022-09-07T08:12:52.512Z,47552.00
2022-09-07T08:13:52.263Z,22784.00
2022-09-07T08:14:52.846Z,13636.00
2022-09-07T08:15:52.291Z,17952.00
2022-09-07T08:16:52.331Z,38944.00
2022-09-07T08:17:52.334Z,17760.00
2022-09-07T08:18:52.582Z,28352.00
2022-09-07T08:19:52.450Z,59712.00
2022-09-07T08:20:52.179Z,58400.00
2022-09-07T08:21:52.434Z,32864.00
2022-09-07T08:22:52.514Z,19360.00
2022-09-07T08:23:52.438Z,26208.00
2022-09-07T08:24:52.446Z,38976.00
2022-09-07T08:25:52.817Z,45728.00
2022-09-07T08:26:52.196Z,55552.00
2022-09-07T08:27:52.292Z,41888.00
2022-09-07T08:28:52.649Z,63648.00
2022-09-07T08:29:52.415Z,66240.00
2022-09-07T08:30:52.478Z,66592.00
2022-09-07T08:31:52.523Z,65536.00
2022-09-07T08:32:52.549Z,48288.00
2022-09-07T08:33:52.399Z,67776.00
2022-09-07T08:34:52.450Z,63136.00
2022-09-07T08:35:52.401Z,63296.00
2022-09-07T08:36:52.338Z,54336.00
2022-09-07T08:37:52.527Z,63712.00
2022-09-07T08:38:52.389Z,58880.00
2022-09-07T08:39:52.774Z,59904.00
2022-09-07T08:40:52.496Z,61792.00
2022-09-07T08:41:52.209Z,61088.00
2022-09-07T08:42:52.494Z,44992.00
2022-09-07T08:43:52.418Z,61312.00
2022-09-07T08:44:52.482Z,59136.00
2022-09-07T08:45:52.391Z,62208.00
2022-09-07T08:46:52.544Z,67488.00
2022-09-07T08:47:52.446Z,66784.00
2022-09-07T08:48:52.300Z,68096.00
2022-09-07T08:49:52.364Z,65376.00
2022-09-07T08:50:52.381Z,65568.00
2022-09-07T08:51:52.490Z,64704.00
2022-09-07T08:52:52.454Z,35584.00
2022-09-07T08:53:52.523Z,28992.00
2022-09-07T08:54:52.697Z,21152.00
2022-09-07T08:55:52.694Z,17248.00
2022-09-07T08:57:52.585Z,12032.00
2022-09-07T08:58:52.564Z,15656.00
2022-09-07T08:59:52.581Z,19776.00
2022-09-07T09:01:30.680Z,48448.00
2022-09-07T09:04:22.513Z,66016.00
2022-09-07T09:05:53.173Z,60864.00
2022-09-07T09:06:52.670Z,61696.00
2022-09-07T09:07:52.563Z,66304.00
2022-09-07T09:08:52.620Z,72864.00
2022-09-07T09:09:52.493Z,68928.00
2022-09-07T09:10:52.651Z,51712.00
2022-09-07T09:11:52.546Z,34816.00
2022-09-07T09:12:52.583Z,19456.00
2022-09-07T09:13:52.599Z,10764.00
2022-09-07T09:14:52.596Z,9168.00
2022-09-07T09:16:52.668Z,8204.00
2022-09-07T09:17:52.591Z,7792.00
2022-09-07T09:18:52.423Z,7556.00
2022-09-07T09:19:52.594Z,7368.00
2022-09-07T09:20:52.590Z,7244.00
2022-09-07T09:21:52.444Z,7132.00
2022-09-07T09:22:52.421Z,7284.00
2022-09-07T09:23:52.573Z,7060.00
2022-09-07T09:24:52.404Z,6944.00
2022-09-07T09:25:52.771Z,6892.00
2022-09-07T09:26:52.523Z,6812.00
2022-09-07T09:27:52.488Z,6748.00
2022-09-07T09:28:52.531Z,6676.00
2022-09-07T09:29:52.248Z,6652.00
2022-09-07T09:30:52.584Z,6588.00
2022-09-07T09:31:52.647Z,6556.00
2022-09-07T09:32:52.711Z,6536.00
2022-09-07T09:33:52.560Z,6516.00
2022-09-07T09:34:52.465Z,6476.00
2022-09-07T09:35:52.512Z,6420.00
2022-09-07T09:36:52.167Z,6380.00
2022-09-07T09:37:52.264Z,6360.00
2022-09-07T09:38:52.210Z,6328.00
2022-09-07T09:39:54.454Z,6344.00
2022-09-07T09:40:52.187Z,6360.00
2022-09-07T09:41:52.168Z,6324.00
2022-09-07T09:42:52.188Z,6304.00
2022-09-07T09:43:52.144Z,6312.00
2022-09-07T09:44:52.210Z,6260.00
2022-09-07T09:47:29.624Z,6212.00
2022-09-07T09:47:52.178Z,6184.00
2022-09-07T09:48:52.157Z,6152.00
2022-09-07T09:49:52.169Z,6160.00
2022-09-07T09:52:52.349Z,6160.00
2022-09-07T09:53:52.131Z,6128.00
2022-09-07T09:54:52.161Z,6096.00
2022-09-07T09:55:52.173Z,6080.00
2022-09-07T09:56:52.382Z,6080.00
2022-09-07T09:59:56.865Z,6132.00
2022-09-07T09:59:57.105Z,6180.00
2022-09-07T10:03:55.797Z,7156.00
2022-09-07T10:04:52.148Z,7116.00
2022-09-07T10:05:52.174Z,7140.00
2022-09-07T10:06:52.171Z,7404.00
2022-09-07T10:07:52.379Z,7784.00
2022-09-07T10:08:52.505Z,7884.00
2022-09-07T10:09:52.501Z,7900.00
2022-09-07T10:10:52.415Z,8020.00
2022-09-07T10:12:08.238Z,8088.00
2022-09-07T10:12:52.140Z,7996.00
2022-09-07T10:13:52.274Z,8024.00
2022-09-07T10:14:52.285Z,8192.00
2022-09-07T10:15:52.146Z,8284.00
2022-09-07T10:16:52.143Z,8244.00
2022-09-07T10:17:52.156Z,8168.00
2022-09-07T10:18:52.169Z,8040.00
2022-09-07T10:19:52.610Z,7948.00
2022-09-07T10:20:52.128Z,7832.00
2022-09-07T10:21:52.437Z,7544.00
2022-09-07T10:22:52.584Z,7336.00
2022-09-07T10:23:52.163Z,6436.00
2022-09-07T10:24:52.137Z,5484.00
2022-09-07T10:25:52.132Z,5712.00
2022-09-07T10:26:52.119Z,5112.00
2022-09-07T10:27:52.123Z,4676.00
2022-09-07T10:29:08.016Z,4532.00
2022-09-07T10:29:52.146Z,5208.00
2022-09-07T10:30:52.187Z,5172.00
2022-09-07T10:31:52.155Z,4848.00
2022-09-07T10:32:52.158Z,4784.00
2022-09-07T10:34:52.133Z,4292.00
2022-09-07T10:35:52.119Z,5880.00
2022-09-07T10:36:52.134Z,6468.00
2022-09-07T10:37:52.107Z,6472.00
2022-09-07T10:38:52.117Z,6588.00
2022-09-07T10:39:54.809Z,4900.00
2022-09-07T10:40:52.117Z,4688.00
2022-09-07T10:41:52.118Z,4492.00
2022-09-07T10:43:52.121Z,4560.00
2022-09-07T10:44:52.120Z,4716.00
2022-09-07T10:45:52.255Z,4752.00
2022-09-07T10:46:59.419Z,4712.00
2022-09-07T10:47:52.164Z,5096.00
2022-09-07T10:48:52.112Z,5164.00
2022-09-07T10:50:52.325Z,5152.00
2022-09-07T10:51:52.120Z,4804.00
2022-09-07T10:52:52.100Z,4872.00
2022-09-07T10:54:29.887Z,4616.00
2022-09-07T10:54:52.102Z,4676.00
2022-09-07T10:55:52.152Z,4272.00
2022-09-07T10:56:52.107Z,3784.00
2022-09-07T10:57:52.115Z,3260.00
2022-09-07T10:59:07.627Z,2948.00
2022-09-07T11:00:08.377Z,2724.00
2022-09-07T11:00:52.122Z,2528.00
2022-09-07T11:01:52.271Z,2416.00
2022-09-07T11:03:52.404Z,2264.00
2022-09-07T11:04:52.136Z,2236.00
2022-09-07T11:05:52.135Z,2228.00
2022-09-07T11:06:52.106Z,2200.00
2022-09-07T11:07:52.146Z,2208.00
2022-09-07T11:09:52.111Z,2220.00
2022-09-07T11:10:52.103Z,2216.00
2022-09-07T11:12:07.648Z,2240.00
2022-09-07T11:12:52.146Z,2200.00
2022-09-07T11:14:11.978Z,2216.00
2022-09-07T11:14:52.116Z,2252.00
2022-09-07T11:15:52.156Z,2296.00
2022-09-07T11:16:52.457Z,2360.00
2022-09-07T11:17:53.136Z,2640.00
2022-09-07T11:18:52.264Z,3060.00
2022-09-07T11:19:52.087Z,3124.00
2022-09-07T11:20:52.116Z,3908.00
2022-09-07T11:21:59.264Z,4128.00
2022-09-07T11:22:52.112Z,4500.00
2022-09-07T11:23:52.104Z,5356.00
2022-09-07T11:25:52.402Z,5092.00
2022-09-07T11:26:52.599Z,5476.00
2022-09-07T11:27:52.692Z,4496.00
2022-09-07T11:29:52.087Z,5376.00
2022-09-07T11:30:53.788Z,5336.00
2022-09-07T11:31:52.078Z,5316.00
2022-09-07T11:32:52.118Z,5336.00
2022-09-07T11:34:52.411Z,5040.00
2022-09-07T11:35:52.066Z,5000.00
2022-09-07T11:36:52.080Z,5128.00
2022-09-07T11:37:52.062Z,5268.00
2022-09-07T11:38:52.101Z,5436.00
2022-09-07T11:39:52.138Z,5356.00
2022-09-07T11:40:52.117Z,5304.00
2022-09-07T11:41:52.064Z,5272.00
2022-09-07T11:42:52.079Z,5232.00
2022-09-07T11:43:52.068Z,5184.00
2022-09-07T11:44:52.149Z,5152.00
2022-09-07T11:45:52.145Z,5220.00
2022-09-07T11:46:52.100Z,5208.00
2022-09-07T11:47:52.050Z,5336.00
2022-09-07T11:48:52.079Z,5356.00
2022-09-07T11:49:55.063Z,5336.00
2022-09-07T11:50:52.077Z,5336.00
2022-09-07T11:51:55.124Z,5304.00
2022-09-07T11:52:55.115Z,5256.00
2022-09-07T11:53:52.107Z,5212.00
2022-09-07T11:54:52.307Z,5160.00
2022-09-07T11:55:52.146Z,5108.00
2022-09-07T11:56:52.087Z,5080.00
2022-09-07T11:57:55.488Z,5092.00
2022-09-07T11:58:52.090Z,4964.00
2022-09-07T11:59:52.173Z,5044.00
2022-09-07T12:00:52.091Z,5116.00
2022-09-07T12:01:52.262Z,5132.00
2022-09-07T12:03:00.755Z,5076.00
2022-09-07T12:03:52.419Z,5092.00
2022-09-07T12:04:56.222Z,5132.00
2022-09-07T12:06:38.588Z,4892.00
2022-09-07T12:08:56.129Z,4616.00
2022-09-07T12:09:56.080Z,3180.00
2022-09-07T12:10:56.158Z,3992.00
2022-09-07T12:11:56.105Z,3500.00
2022-09-07T12:13:48.518Z,4364.00
2022-09-07T12:14:48.591Z,4460.00
2022-09-07T12:15:48.522Z,4516.00
2022-09-07T12:17:30.922Z,4680.00
2022-09-07T12:18:31.026Z,3204.00
2022-09-07T12:19:30.894Z,3028.00
2022-09-07T12:21:33.340Z,3700.00
2022-09-07T12:22:33.332Z,2796.00
2022-09-07T12:23:33.337Z,2588.00
2022-09-07T12:24:33.340Z,2504.00
2022-09-07T12:25:33.695Z,2488.00
2022-09-07T12:26:33.312Z,2644.00
2022-09-07T12:27:33.319Z,2736.00
2022-09-07T12:28:33.455Z,4268.00
2022-09-07T12:29:33.334Z,4468.00
2022-09-07T12:30:33.487Z,4464.00
2022-09-07T12:31:39.658Z,4440.00
2022-09-07T12:33:03.126Z,3196.00
2022-09-07T12:33:33.336Z,3704.00
2022-09-07T12:34:33.359Z,3108.00
2022-09-07T12:35:33.489Z,2928.00
2022-09-07T12:36:33.369Z,2904.00
2022-09-07T12:37:33.337Z,3068.00
2022-09-07T12:38:33.461Z,3004.00
2022-09-07T12:39:33.483Z,3272.00
2022-09-07T12:40:36.313Z,2816.00
2022-09-07T13:00:17.375Z,2444.00
2022-09-07T13:01:17.343Z,2396.00
2022-09-07T13:02:18.136Z,2392.00
2022-09-07T13:04:17.203Z,3232.00
2022-09-07T13:05:17.360Z,3400.00
2022-09-07T13:06:17.483Z,4096.00
2022-09-07T13:07:17.234Z,4344.00
2022-09-07T13:08:17.200Z,4340.00
2022-09-07T13:09:17.191Z,2988.00
2022-09-07T13:10:17.348Z,2864.00
2022-09-07T13:11:17.202Z,2756.00
2022-09-07T13:12:52.930Z,2728.00
2022-09-07T13:13:17.685Z,2724.00
2022-09-07T13:14:17.768Z,2632.00
2022-09-07T13:15:24.074Z,2568.00
2022-09-07T13:16:17.792Z,2488.00
2022-09-07T13:17:17.414Z,2444.00
2022-09-07T13:18:17.216Z,2356.00
2022-09-07T13:19:17.251Z,2308.00
2022-09-07T13:20:17.376Z,2308.00
2022-09-07T13:21:17.236Z,2312.00
2022-09-07T13:22:17.204Z,2292.00
2022-09-07T13:23:17.201Z,2288.00
2022-09-07T13:24:47.217Z,2268.00
2022-09-07T13:25:17.345Z,2260.00
2022-09-07T13:26:17.196Z,2308.00
2022-09-07T13:27:17.194Z,2508.00
2022-09-07T13:28:17.218Z,2864.00
2022-09-07T13:29:17.211Z,3148.00